Time;durP1;ratioP1;P1;durP2;ratioP2;P2;SDS_P1;SDS_P2;PMS_P1;PMS_P2;Temp;Humidity;BMP_temperature;BMP_pressure;BME280_temperature;BME280_humidity;BME280_pressure;Samples;Min_cycle;Max_cycle;Signal;HPM_P1;HPM_P2
2023/09/07 00:00:44;;;;;;;6.60;5.87;;;;;;;15.74;100.00;96678.59;4855984;28;105529;-68
2023/09/07 00:03:12;;;;;;;6.43;5.73;;;;;;;15.90;100.00;96680.94;4856677;28;101992;-68
2023/09/07 00:05:39;;;;;;;6.97;6.00;;;;;;;15.92;100.00;96683.38;4856471;28;105310;-68
2023/09/07 00:08:07;;;;;;;6.60;6.00;;;;;;;15.79;100.00;96682.09;4856002;28;105832;-68
2023/09/07 00:10:35;;;;;;;7.63;6.33;;;;;;;15.64;100.00;96684.81;4856437;28;102025;-68
2023/09/07 00:13:02;;;;;;;6.00;5.37;;;;;;;15.56;100.00;96689.94;4876505;28;103103;-68
2023/09/07 00:15:30;;;;;;;5.87;5.37;;;;;;;15.55;100.00;96686.50;4856552;28;102068;-68
2023/09/07 00:17:59;;;;;;;5.67;5.17;;;;;;;15.35;100.00;96685.72;4856541;28;105724;-68
2023/09/07 00:20:27;;;;;;;5.27;4.87;;;;;;;15.43;100.00;96693.22;4855733;28;105605;-68
2023/09/07 00:22:54;;;;;;;5.87;5.27;;;;;;;15.47;100.00;96694.28;4856248;28;102066;-68
2023/09/07 00:25:21;;;;;;;6.50;5.80;;;;;;;15.57;100.00;96694.22;4856256;28;105654;-68
2023/09/07 00:27:48;;;;;;;8.87;6.10;;;;;;;15.85;100.00;96694.38;4855711;28;105866;-68
2023/09/07 00:30:16;;;;;;;5.90;5.30;;;;;;;15.64;100.00;96694.75;4873041;28;102059;-70
2023/09/07 00:32:43;;;;;;;7.03;5.03;;;;;;;15.36;100.00;96682.00;4856254;28;105286;-67
2023/09/07 00:35:12;;;;;;;5.20;4.70;;;;;;;15.19;100.00;96682.28;4858810;28;105820;-67
2023/09/07 00:37:39;;;;;;;5.03;4.07;;;;;;;15.47;100.00;96696.97;4856037;28;105149;-66
2023/09/07 00:40:09;;;;;;;4.53;4.23;;;;;;;15.35;100.00;96696.44;4855519;28;105752;-66
2023/09/07 00:42:37;;;;;;;5.93;5.27;;;;;;;15.32;100.00;96691.63;4873162;28;101947;-66
2023/09/07 00:45:04;;;;;;;5.77;5.27;;;;;;;15.50;100.00;96696.41;4856094;28;105333;-66
2023/09/07 00:47:35;;;;;;;7.50;6.20;;;;;;;15.54;100.00;96692.13;4855710;28;105694;-66
2023/09/07 00:50:04;;;;;;;7.10;6.40;;;;;;;15.68;100.00;96696.63;4856056;28;102601;-66
2023/09/07 00:52:36;;;;;;;6.67;6.03;;;;;;;15.73;100.00;96704.63;4855963;28;105174;-67
2023/09/07 00:55:04;;;;;;;6.17;5.63;;;;;;;15.61;100.00;96693.44;4854293;28;105763;-70
2023/09/07 00:57:32;;;;;;;5.90;5.30;;;;;;;15.71;100.00;96695.25;4859250;28;102001;-70
2023/09/07 00:59:59;;;;;;;6.17;5.50;;;;;;;15.83;100.00;96690.38;4855085;28;106030;-70
2023/09/07 01:02:27;;;;;;;6.30;5.43;;;;;;;15.74;100.00;96689.34;4855937;28;101907;-70
2023/09/07 01:04:54;;;;;;;5.73;5.23;;;;;;;15.71;100.00;96692.56;4855817;28;106116;-70
2023/09/07 01:07:26;;;;;;;6.77;5.70;;;;;;;15.43;100.00;96685.97;4855072;28;105554;-70
2023/09/07 01:09:58;;;;;;;5.13;4.73;;;;;;;14.87;100.00;96675.66;4855918;28;102148;-70
2023/09/07 01:12:25;;;;;;;5.40;4.90;;;;;;;14.98;100.00;96693.31;4873075;28;102603;-69
2023/09/07 01:14:53;;;;;;;6.73;4.87;;;;;;;14.98;100.00;96685.28;4855205;28;105788;-70
2023/09/07 01:17:21;;;;;;;6.00;5.00;;;;;;;14.87;100.00;96684.47;4859161;28;101997;-70
2023/09/07 01:19:49;;;;;;;5.80;4.80;;;;;;;15.03;100.00;96685.25;4855140;28;105521;-70
2023/09/07 01:22:20;;;;;;;5.93;5.37;;;;;;;15.16;100.00;96693.50;4872658;28;101944;-70
2023/09/07 01:24:48;;;;;;;5.73;5.23;;;;;;;15.23;100.00;96693.25;4855757;28;104921;-70
2023/09/07 01:27:15;;;;;;;6.43;4.73;;;;;;;15.11;100.00;96692.75;4855163;28;105353;-70
2023/09/07 01:29:43;;;;;;;8.33;5.90;;;;;;;15.07;100.00;96687.13;4855117;28;102113;-70
2023/09/07 01:32:10;;;;;;;6.20;5.60;;;;;;;14.98;100.00;96679.91;4855689;28;105233;-70
2023/09/07 01:34:38;;;;;;;5.10;4.60;;;;;;;14.57;100.00;96667.63;4854869;28;104725;-70
2023/09/07 01:37:05;;;;;;;6.60;4.70;;;;;;;14.45;100.00;96670.56;4855419;28;101938;-70
2023/09/07 01:39:34;;;;;;;4.90;4.50;;;;;;;14.50;100.00;96673.25;4858198;28;105293;-70
2023/09/07 01:42:01;;;;;;;4.77;4.40;;;;;;;14.21;100.00;96677.53;4855254;28;102195;-70
2023/09/07 01:44:30;;;;;;;4.73;4.27;;;;;;;14.21;100.00;96682.06;4855450;28;105621;-70
2023/09/07 01:46:57;;;;;;;5.27;4.80;;;;;;;14.55;100.00;96680.50;4854875;28;105481;-70
2023/09/07 01:49:24;;;;;;;6.10;5.50;;;;;;;14.62;100.00;96681.00;4855326;28;102375;-70
2023/09/07 01:51:52;;;;;;;6.03;5.43;;;;;;;14.74;100.00;96685.03;4855288;28;105854;-70
2023/09/07 01:54:19;;;;;;;6.10;5.60;;;;;;;14.55;100.00;96681.28;4854640;28;105493;-70
2023/09/07 01:56:48;;;;;;;6.03;5.43;;;;;;;14.56;100.00;96682.09;4855247;28;102153;-70
2023/09/07 01:59:16;;;;;;;7.23;5.73;;;;;;;14.56;100.00;96672.16;4855268;28;105282;-70
2023/09/07 02:01:43;;;;;;;5.13;4.57;;;;;;;14.35;100.00;96675.94;4857883;28;105583;-70
2023/09/07 02:04:10;;;;;;;5.63;5.07;;;;;;;14.31;100.00;96676.72;4855142;28;105793;-67
2023/09/07 02:06:37;;;;;;;5.23;4.73;;;;;;;14.15;100.00;96665.19;4856765;28;106106;-67
2023/09/07 02:09:05;;;;;;;5.67;5.10;;;;;;;14.32;100.00;96681.00;4858405;28;102223;-67
2023/09/07 02:11:32;;;;;;;5.80;5.20;;;;;;;14.40;100.00;96675.91;4875507;28;103039;-67
2023/09/07 02:14:00;;;;;;;6.13;5.30;;;;;;;14.23;100.00;96677.25;4857715;28;105593;-69
2023/09/07 02:16:27;;;;;;;5.70;5.20;;;;;;;14.26;100.00;96682.88;4875447;28;101864;-69
2023/09/07 02:19:03;;;;;;;6.23;5.47;;;;;;;14.23;100.00;96679.94;4858384;28;105311;-69
2023/09/07 02:21:30;;;;;;;6.77;5.70;;;;;;;14.24;100.00;96686.88;4857406;28;105276;-69
2023/09/07 02:23:57;;;;;;;7.07;6.27;;;;;;;14.48;100.00;96680.75;4861557;28;102151;-69
2023/09/07 02:26:24;;;;;;;7.17;6.30;;;;;;;14.47;100.00;96676.47;4857516;28;105445;-70
2023/09/07 02:28:51;;;;;;;6.73;5.83;;;;;;;14.65;100.00;96680.47;4858074;28;102041;-71
2023/09/07 02:31:19;;;;;;;6.90;6.30;;;;;;;14.65;100.00;96675.09;4854533;28;105354;-70
2023/09/07 02:33:46;;;;;;;7.03;6.40;;;;;;;14.58;100.00;96685.28;4854490;28;105090;-70
2023/09/07 02:36:13;;;;;;;6.70;6.10;;;;;;;14.59;100.00;96677.00;4854839;29;102012;-70
2023/09/07 02:38:41;;;;;;;6.43;5.83;;;;;;;14.43;100.00;96672.72;4854918;29;105286;-70
2023/09/07 02:41:08;;;;;;;6.23;5.67;;;;;;;14.20;100.00;96673.25;4855627;28;102896;-68
2023/09/07 02:43:35;;;;;;;6.90;6.00;;;;;;;14.17;100.00;96676.41;4854756;28;102335;-69
2023/09/07 02:46:02;;;;;;;6.40;5.80;;;;;;;14.05;100.00;96672.38;4857667;28;105818;-69
2023/09/07 02:48:30;;;;;;;6.57;5.93;;;;;;;14.47;100.00;96676.47;4854940;29;102303;-69
2023/09/07 02:50:58;;;;;;;6.90;6.20;;;;;;;14.42;100.00;96679.16;4854653;28;105613;-70
2023/09/07 02:53:25;;;;;;;6.23;5.60;;;;;;;14.19;100.00;96679.66;4853912;29;105760;-71
2023/09/07 02:55:52;;;;;;;7.37;5.93;;;;;;;14.47;100.00;96683.69;4854769;29;101935;-71
2023/09/07 02:58:20;;;;;;;5.97;5.47;;;;;;;14.53;100.00;96680.75;4854598;29;105311;-71
2023/09/07 03:00:48;;;;;;;6.13;5.60;;;;;;;14.04;100.00;96676.94;4853876;29;105678;-71
2023/09/07 03:03:17;;;;;;;5.70;5.30;;;;;;;13.91;100.00;96676.63;4854362;29;102028;-71
2023/09/07 03:05:47;;;;;;;6.60;6.00;;;;;;;13.90;100.00;96678.50;4854593;28;106128;-71
2023/09/07 03:08:15;;;;;;;6.97;6.27;;;;;;;14.00;100.00;96678.53;4857077;29;105739;-68
2023/09/07 03:10:43;;;;;;;6.60;6.00;;;;;;;14.33;100.00;96686.09;4854429;28;105641;-68
2023/09/07 03:13:11;;;;;;;9.80;6.70;;;;;;;14.53;100.00;96682.63;4853698;29;105859;-68
2023/09/07 03:15:39;;;;;;;6.70;6.13;;;;;;;14.57;100.00;96686.38;4854575;29;101987;-68
2023/09/07 03:18:10;;;;;;;8.03;6.43;;;;;;;14.60;100.00;96689.31;4853185;29;105220;-68
2023/09/07 03:20:39;;;;;;;7.37;6.67;;;;;;;14.44;100.00;96687.69;4853597;28;106281;-67
2023/09/07 03:23:08;;;;;;;7.70;7.00;;;;;;;14.30;100.00;96691.16;4854196;28;102299;-68
2023/09/07 03:25:36;;;;;;;6.80;6.20;;;;;;;13.95;100.00;96691.09;4854186;28;105776;-68
2023/09/07 03:28:04;;;;;;;7.43;5.93;;;;;;;13.62;100.00;96686.97;4856911;28;105744;-68
2023/09/07 03:30:33;;;;;;;6.33;5.73;;;;;;;14.07;100.00;96691.63;4853628;28;105521;-68
2023/09/07 03:33:00;;;;;;;5.40;4.90;;;;;;;13.68;100.00;96687.78;4853420;28;104984;-68
2023/09/07 03:35:27;;;;;;;5.73;4.90;;;;;;;13.62;100.00;96692.31;4854263;29;102188;-70
2023/09/07 03:37:54;;;;;;;6.43;5.50;;;;;;;13.49;100.00;96689.31;4854121;29;105658;-71
2023/09/07 03:40:22;;;;;;;5.97;5.37;;;;;;;13.53;100.00;96693.06;4853412;29;105253;-71
2023/09/07 03:42:49;;;;;;;6.03;5.43;;;;;;;13.65;100.00;96697.13;4853774;29;101879;-71
2023/09/07 03:45:17;;;;;;;7.70;6.03;;;;;;;13.60;100.00;96698.97;4853892;29;105188;-70
2023/09/07 03:47:44;;;;;;;6.87;6.23;;;;;;;13.52;100.00;96697.59;4853102;28;106117;-70
2023/09/07 03:50:14;;;;;;;6.27;5.60;;;;;;;13.27;100.00;96688.66;4857144;29;101988;-67
2023/09/07 03:52:41;;;;;;;10.03;6.20;;;;;;;13.52;100.00;96694.16;4853143;29;106178;-68
2023/09/07 03:55:10;;;;;;;7.10;6.40;;;;;;;13.34;100.00;96695.41;4853582;28;101959;-68
2023/09/07 03:57:40;;;;;;;8.67;7.13;;;;;;;13.70;100.00;96702.50;4853723;29;105340;-68
2023/09/07 04:00:09;;;;;;;7.90;7.03;;;;;;;13.69;100.00;96692.84;4853075;28;105677;-68
2023/09/07 04:02:45;;;;;;;9.83;7.30;;;;;;;13.75;100.00;96693.69;4853500;29;101932;-67
2023/09/07 04:05:12;;;;;;;8.77;7.70;;;;;;;13.63;100.00;96703.81;4853652;28;105573;-68
2023/09/07 04:07:39;;;;;;;9.43;7.20;;;;;;;13.36;100.00;96698.59;4854361;29;102757;-69
2023/09/07 04:10:07;;;;;;;13.50;7.90;;;;;;;13.46;100.00;96697.88;4853712;29;102513;-69
2023/09/07 04:12:35;;;;;;;11.00;8.73;;;;;;;13.36;100.00;96703.16;4855989;28;105472;-69
2023/09/07 04:15:05;;;;;;;9.47;7.60;;;;;;;13.37;100.00;96696.75;4853364;29;101969;-69
2023/09/07 04:17:39;;;;;;;8.47;7.53;;;;;;;13.26;100.00;96700.44;4854840;29;102694;-69
2023/09/07 04:20:09;;;;;;;9.93;8.50;;;;;;;13.16;100.00;96701.19;4852834;29;105797;-69
2023/09/07 04:22:36;;;;;;;9.47;8.53;;;;;;;13.12;100.00;96696.59;4853261;28;102156;-69
2023/09/07 04:25:04;;;;;;;10.43;9.30;;;;;;;13.23;100.00;96703.59;4853327;28;105370;-68
2023/09/07 04:27:32;;;;;;;10.77;8.57;;;;;;;13.16;100.00;96705.72;4852663;28;105884;-68
2023/09/07 04:30:00;;;;;;;10.90;8.83;;;;;;;13.24;100.00;96703.34;4855276;28;102050;-68
2023/09/07 04:32:29;;;;;;;11.47;9.23;;;;;;;13.40;100.00;96701.56;4856443;28;105556;-68
2023/09/07 04:34:58;;;;;;;10.70;9.47;;;;;;;13.28;100.00;96712.47;4859055;28;105552;-66
2023/09/07 04:37:26;;;;;;;9.67;8.77;;;;;;;13.30;100.00;96721.00;4856265;28;105665;-66
2023/09/07 04:39:53;;;;;;;9.97;8.83;;;;;;;13.31;100.00;96719.94;4855466;28;105578;-66
2023/09/07 04:42:21;;;;;;;9.03;8.00;;;;;;;13.22;100.00;96720.69;4856195;28;102254;-70
2023/09/07 04:44:49;;;;;;;8.83;7.93;;;;;;;13.51;100.00;96727.28;4856025;28;105264;-70
2023/09/07 04:47:16;;;;;;;12.03;8.90;;;;;;;13.54;100.00;96734.75;4855529;28;105902;-70
2023/09/07 04:49:50;;;;;;;11.23;10.00;;;;;;;13.92;100.00;96732.53;4856118;28;102037;-70
2023/09/07 04:52:19;;;;;;;10.90;9.80;;;;;;;13.95;100.00;96734.66;4855171;28;104889;-70
2023/09/07 04:54:47;;;;;;;11.70;10.60;;;;;;;13.87;100.00;96737.03;4855487;28;104442;-69
2023/09/07 04:57:17;;;;;;;14.30;10.67;;;;;;;14.03;100.00;96733.34;4858354;28;101984;-70
2023/09/07 04:59:44;;;;;;;13.17;11.10;;;;;;;13.66;100.00;96738.00;4854272;28;105502;-70
2023/09/07 05:02:12;;;;;;;11.47;10.10;;;;;;;13.84;100.00;96738.34;4854789;28;102654;-70
2023/09/07 05:04:39;;;;;;;12.07;10.87;;;;;;;13.59;100.00;96737.47;4872184;28;103015;-68
2023/09/07 05:07:07;;;;;;;11.80;10.60;;;;;;;13.56;100.00;96740.63;4854418;28;105500;-68
2023/09/07 05:09:35;;;;;;;12.53;11.23;;;;;;;13.54;100.00;96740.09;4854809;28;101958;-68
2023/09/07 05:12:02;;;;;;;12.07;10.80;;;;;;;14.02;100.00;96745.13;4854713;28;105836;-69
2023/09/07 05:14:30;;;;;;;13.87;12.47;;;;;;;13.81;100.00;96738.09;4854141;28;104373;-69
2023/09/07 05:16:57;;;;;;;12.40;11.10;;;;;;;14.17;100.00;96742.50;4854933;28;102073;-69
2023/09/07 05:19:25;;;;;;;17.03;11.77;;;;;;;14.16;100.00;96746.19;4857557;28;105619;-68
2023/09/07 05:21:52;;;;;;;14.10;12.13;;;;;;;14.34;100.00;96746.53;4854631;28;102087;-68
2023/09/07 05:24:21;;;;;;;12.80;11.40;;;;;;;14.18;100.00;96746.75;4854525;28;105593;-69
2023/09/07 05:26:48;;;;;;;13.07;11.53;;;;;;;14.31;100.00;96746.28;4854115;28;105720;-69
2023/09/07 05:30:17;;;;;;;11.82;10.68;;;;;;;-141.26;100.00;62741.75;4351560;28;16421433;-69
2023/09/07 05:34:09;;;;;;;12.10;10.48;;;;;;;-141.26;100.00;62741.75;5;39769528;45793677;-67
2023/09/07 05:38:10;;;;;;;10.57;9.57;;;;;;;-141.26;100.00;62741.75;5;39769840;45773032;-68
2023/09/07 05:42:12;;;;;;;13.63;9.32;;;;;;;-141.26;100.00;62741.75;5;38269752;45792109;-67
2023/09/07 05:46:16;;;;;;;9.63;8.05;;;;;;;-141.26;100.00;62741.75;5;38269166;45793574;-67
2023/09/07 05:50:13;;;;;;;8.80;7.95;;;;;;;-141.26;100.00;62741.75;5;38270588;45773713;-67
2023/09/07 05:54:10;;;;;;;7.93;6.40;;;;;;;-141.26;100.00;62741.75;5;38270327;45794013;-67
2023/09/07 05:58:16;;;;;;;7.82;7.07;;;;;;;-141.26;100.00;62741.75;5;38269877;45795531;-67
2023/09/07 06:02:15;;;;;;;9.85;8.95;;;;;;;-141.26;100.00;62741.75;5;38269974;45773475;-67
2023/09/07 06:06:12;;;;;;;7.50;6.88;;;;;;;-141.26;100.00;62741.75;5;38269989;45793643;-67
2023/09/07 06:10:17;;;;;;;6.97;6.35;;;;;;;-141.26;100.00;62741.75;5;38269215;45793955;-68
2023/09/07 06:14:16;;;;;;;7.93;7.30;;;;;;;-141.26;100.00;62741.75;5;38270232;45773456;-67
2023/09/07 06:18:13;;;;;;;6.47;5.97;;;;;;;-141.26;100.00;62741.75;5;38268207;45793788;-67
2023/09/07 06:22:17;;;;;;;7.15;6.47;;;;;;;-141.26;100.00;62741.75;5;38268082;45793042;-67
2023/09/07 06:26:14;;;;;;;6.70;6.20;;;;;;;-141.26;100.00;62741.75;5;38270364;45772941;-67
2023/09/07 06:30:12;;;;;;;4.28;3.92;;;;;;;-141.26;100.00;62741.75;5;38269106;45794418;-67
2023/09/07 06:34:17;;;;;;;5.20;4.80;;;;;;;-141.26;100.00;62741.75;5;38268509;45792992;-67
2023/09/07 06:38:14;;;;;;;4.40;4.07;;;;;;;-141.26;100.00;62741.75;5;38268113;45773618;-67
2023/09/07 06:42:11;;;;;;;6.00;5.45;;;;;;;-141.26;100.00;62741.75;5;38270917;45793750;-67
2023/09/07 06:46:29;;;;;;;6.15;5.68;;;;;;;-141.26;100.00;62741.75;5;38269614;45794411;-68
2023/09/07 06:50:26;;;;;;;6.97;6.43;;;;;;;-141.26;100.00;62741.75;5;38269849;45773486;-67
2023/09/07 06:54:23;;;;;;;5.88;5.43;;;;;;;-141.26;100.00;62741.75;5;38268997;45793654;-68
2023/09/07 06:58:27;;;;;;;7.07;6.47;;;;;;;-141.26;100.00;62741.75;5;38269603;45793284;-67
2023/09/07 07:01:48;;;;;;;6.10;5.53;;;;;;;-141.26;100.00;62741.75;5;38269685;45774293;-67
2023/09/07 07:05:53;;;;;;;7.80;7.20;;;;;;;-141.26;100.00;62741.75;5;38268848;45793900;-68
2023/09/07 07:09:50;;;;;;;7.00;5.93;;;;;;;-141.26;100.00;62741.75;5;38271066;45772749;-68
2023/09/07 07:13:47;;;;;;;6.68;6.18;;;;;;;-141.26;100.00;62741.75;5;38269225;45793454;-68
2023/09/07 07:17:53;;;;;;;5.40;5.03;;;;;;;-141.26;100.00;62741.75;5;38269135;45793535;-68
2023/09/07 07:21:50;;;;;;;6.60;6.10;;;;;;;-141.26;100.00;62741.75;5;38269593;45772712;-68
2023/09/07 07:25:46;;;;;;;5.93;5.40;;;;;;;-141.26;100.00;62741.75;5;38269805;45793038;-68
2023/09/07 07:29:52;;;;;;;12.65;6.97;;;;;;;-141.26;100.00;62741.75;5;38269805;45793711;-68
2023/09/07 07:33:50;;;;;;;6.80;6.32;;;;;;;-141.26;100.00;62741.75;5;38270634;45773206;-68
2023/09/07 07:37:48;;;;;;;6.30;5.80;;;;;;;-141.26;100.00;62741.75;5;38269431;45792577;-68
2023/09/07 07:41:53;;;;;;;5.78;5.25;;;;;;;-141.26;100.00;62741.75;5;38269227;45793167;-68
2023/09/07 07:45:49;;;;;;;7.47;5.93;;;;;;;-141.26;100.00;62741.75;5;38269976;45774123;-68
2023/09/07 07:49:47;;;;;;;5.95;5.40;;;;;;;-141.26;100.00;62741.75;5;38269005;45794196;-68
2023/09/07 07:53:52;;;;;;;6.85;6.25;;;;;;;-141.26;100.00;62741.75;5;38268856;45793263;-68
2023/09/07 07:57:49;;;;;;;7.47;6.85;;;;;;;-141.26;100.00;62741.75;5;38269923;45773232;-68
2023/09/07 08:01:46;;;;;;;6.40;5.90;;;;;;;-141.26;100.00;62741.75;5;38268758;45793155;-67
2023/09/07 08:05:52;;;;;;;6.20;5.70;;;;;;;-141.26;100.00;62741.75;5;38270384;45794444;-67
2023/09/07 08:09:50;;;;;;;7.90;7.25;;;;;;;-141.26;100.00;62741.75;5;38269095;45773723;-73
2023/09/07 08:13:47;;;;;;;7.13;6.50;;;;;;;-141.26;100.00;62741.75;5;38268806;45793623;-66
2023/09/07 08:17:52;;;;;;;7.95;6.75;;;;;;;-141.26;100.00;62741.75;5;38270019;45793909;-65
2023/09/07 08:21:50;;;;;;;6.38;5.78;;;;;;;-141.26;100.00;62741.75;5;38268123;45772625;-66
2023/09/07 08:25:47;;;;;;;7.32;6.70;;;;;;;-141.26;100.00;62741.75;5;38268778;45793802;-65
2023/09/07 08:29:52;;;;;;;6.80;5.97;;;;;;;-141.26;100.00;62741.75;5;38268618;45793830;-65
2023/09/07 08:33:51;;;;;;;5.30;4.80;;;;;;;-141.26;100.00;62741.75;5;38270301;45773107;-64
2023/09/07 08:37:49;;;;;;;7.82;5.05;;;;;;;-141.26;100.00;62741.75;5;38269671;45792388;-66
2023/09/07 08:41:53;;;;;;;6.50;5.18;;;;;;;-141.26;100.00;62741.75;5;38268339;45793808;-66
2023/09/07 08:45:57;;;;;;;6.57;4.95;;;;;;;-141.26;100.00;62741.75;5;38269726;45774175;-68
2023/09/07 08:49:55;;;;;;;5.85;5.10;;;;;;;-141.26;100.00;62741.75;5;38269485;45793507;-67
2023/09/07 08:54:03;;;;;;;4.93;4.57;;;;;;;-141.26;100.00;62741.75;5;38268829;45793590;-66
2023/09/07 08:57:59;;;;;;;9.70;4.90;;;;;;;-141.26;100.00;62741.75;5;38270182;45772531;-67
2023/09/07 09:01:59;;;;;;;6.20;5.60;;;;;;;-141.26;100.00;62741.75;5;38268741;45793195;-66
2023/09/07 09:06:05;;;;;;;6.93;5.78;;;;;;;-141.26;100.00;62741.75;5;38268637;45794009;-66
2023/09/07 09:10:05;;;;;;;4.97;4.55;;;;;;;-141.26;100.00;62741.75;5;38268114;45773671;-67
2023/09/07 09:14:06;;;;;;;14.55;5.28;;;;;;;-141.26;100.00;62741.75;5;38269628;45792675;-67
2023/09/07 09:18:11;;;;;;;8.52;5.25;;;;;;;-141.26;100.00;62741.75;5;38268374;45794284;-67
2023/09/07 09:22:08;;;;;;;4.50;4.22;;;;;;;-141.26;100.00;62741.75;5;38270461;45772648;-67
2023/09/07 09:26:06;;;;;;;4.75;4.35;;;;;;;-141.26;100.00;62741.75;5;38268809;45793091;-67
2023/09/07 09:32:17;;;;;;;6.30;5.70;;;;;;;23.15;100.00;96702.09;5029280;28;101582;-67
2023/09/07 09:34:45;;;;;;;6.07;4.97;;;;;;;23.60;100.00;96700.56;5024229;28;105380;-67
2023/09/07 09:37:16;;;;;;;5.57;5.07;;;;;;;23.64;100.00;96695.28;5024944;28;102305;-67
2023/09/07 09:39:44;;;;;;;8.60;5.50;;;;;;;23.65;100.00;96696.88;5024849;28;105872;-67
2023/09/07 09:42:14;;;;;;;5.43;5.03;;;;;;;24.25;100.00;96700.91;5025521;27;103103;-67
2023/09/07 09:44:42;;;;;;;5.40;4.90;;;;;;;24.10;100.00;96692.53;5024652;28;101896;-67
2023/09/07 09:47:09;;;;;;;5.53;5.13;;;;;;;24.08;100.00;96700.22;5026118;27;102872;-67
2023/09/07 09:49:39;;;;;;;7.60;5.70;;;;;;;24.01;100.00;96689.84;5057789;27;105645;-67
2023/09/07 09:52:08;;;;;;;5.23;4.67;;;;;;;24.40;100.00;96691.34;5061891;27;102437;-67
2023/09/07 09:54:37;;;;;;;5.93;5.30;;;;;;;24.25;100.00;96692.75;5023989;28;105404;-67
2023/09/07 09:57:05;;;;;;;6.10;4.90;;;;;;;24.22;100.00;96689.88;5025858;27;101925;-67
2023/09/07 09:59:33;;;;;;;5.57;5.07;;;;;;;24.46;100.00;96687.34;5024499;28;103836;-67
2023/09/07 10:02:02;;;;;;;5.77;4.70;;;;;;;25.04;100.00;96693.44;5057838;27;105580;-68
2023/09/07 10:04:30;;;;;;;4.63;4.33;;;;;;;25.28;100.00;96698.19;5024280;28;101914;-67
2023/09/07 10:07:01;;;;;;;4.80;4.33;;;;;;;25.22;100.00;96691.34;5025775;27;102555;-67
2023/09/07 10:09:31;;;;;;;4.73;4.40;;;;;;;25.27;100.00;96693.84;5025446;27;103188;-68
2023/09/07 10:12:00;;;;;;;4.90;4.20;;;;;;;25.32;100.00;96697.16;5024318;28;102034;-68
2023/09/07 10:14:38;;;;;;;4.63;4.23;;;;;;;25.42;100.00;96694.03;5028393;27;103001;-68
2023/09/07 10:17:05;;;;;;;6.70;4.60;;;;;;;25.64;100.00;96688.16;5024333;28;102140;-68
2023/09/07 10:19:33;;;;;;;4.80;3.87;;;;;;;26.16;100.00;96680.13;5058121;27;105526;-68
2023/09/07 10:22:03;;;;;;;5.13;4.60;;;;;;;25.99;100.00;96672.97;5025019;28;102974;-67
2023/09/07 10:24:35;;;;;;;5.10;4.70;;;;;;;25.13;100.00;96680.50;5024010;28;102011;-68
2023/09/07 10:27:04;;;;;;;5.97;4.50;;;;;;;25.02;100.00;96686.72;5024151;28;105279;-68
2023/09/07 10:29:42;;;;;;;5.43;4.00;;;;;;;25.62;100.00;96684.97;5023417;28;105925;-67
2023/09/07 10:32:12;;;;;;;4.20;3.90;;;;;;;25.31;100.00;96684.69;5024003;28;102094;-68
2023/09/07 10:34:43;;;;;;;5.47;4.13;;;;;;;25.24;100.00;96678.19;5023824;28;105581;-68
2023/09/07 10:37:13;;;;;;;6.63;4.37;;;;;;;24.51;100.00;96682.47;5026664;28;105732;-68
2023/09/07 10:39:43;;;;;;;4.30;3.63;;;;;;;24.99;100.00;96681.94;5023892;28;105320;-68
2023/09/07 10:42:20;;;;;;;5.60;4.20;;;;;;;25.75;100.00;96672.16;5018039;28;105818;-67
2023/09/07 10:44:47;;;;;;;4.00;3.70;;;;;;;26.09;100.00;96671.72;5010475;28;101849;-67
2023/09/07 10:47:15;;;;;;;5.03;3.80;;;;;;;25.95;100.00;96669.38;5010190;28;105362;-67
2023/09/07 10:49:42;;;;;;;5.07;4.00;;;;;;;26.39;100.00;96660.22;5009760;28;105708;-67
2023/09/07 10:52:09;;;;;;;8.23;4.20;;;;;;;26.49;100.00;96661.66;5044038;27;102238;-67
2023/09/07 10:54:38;;;;;;;4.50;4.10;;;;;;;26.79;100.00;96663.75;5010424;28;105581;-67
2023/09/07 10:57:09;;;;;;;4.40;3.60;;;;;;;27.01;100.00;96659.66;5009553;28;105810;-67
2023/09/07 10:59:36;;;;;;;4.60;4.07;;;;;;;26.89;100.00;96654.28;5013691;28;102014;-68
2023/09/07 11:02:07;;;;;;;4.43;4.03;;;;;;;27.27;100.00;96662.75;5009435;28;105826;-67
2023/09/07 11:04:34;;;;;;;3.97;3.67;;;;;;;27.62;100.00;96664.47;5043912;27;102261;-67
2023/09/07 11:07:04;;;;;;;3.80;3.50;;;;;;;27.90;100.00;96656.97;5011623;28;102838;-67
2023/09/07 11:09:31;;;;;;;4.43;3.88;;;;;;;27.65;100.00;96661.03;5009362;28;105688;-67
2023/09/07 11:12:05;;;;;;;4.15;3.85;;;;;;;28.01;100.00;96649.81;5011386;28;101832;-67
2023/09/07 11:14:32;;;;;;;4.15;3.85;;;;;;;28.29;100.00;96652.44;5010081;28;105675;-67
2023/09/07 11:16:59;;;;;;;3.92;3.50;;;;;;;27.04;100.00;96650.78;5009249;28;105916;-67
2023/09/07 11:19:26;;;;;;;4.32;3.95;;;;;;;27.19;100.00;96650.06;5009982;28;102066;-67
2023/09/07 11:21:54;;;;;;;4.38;3.97;;;;;;;28.04;100.00;96648.31;5014208;28;102572;-67
2023/09/07 11:24:22;;;;;;;4.68;3.75;;;;;;;28.31;100.00;96641.91;5011300;28;101915;-67
2023/09/07 11:26:49;;;;;;;3.63;3.33;;;;;;;28.34;100.00;96649.41;5009807;28;105457;-67
2023/09/07 11:29:18;;;;;;;3.85;3.55;;;;;;;28.27;100.00;96649.28;5008983;28;105758;-67
2023/09/07 11:31:45;;;;;;;3.60;3.30;;;;;;;28.44;100.00;96646.16;5009176;28;102150;-67
2023/09/07 11:34:13;;;;;;;3.60;3.30;;;;;;;28.67;100.00;96647.03;5009672;28;105183;-67
2023/09/07 11:36:41;;;;;;;6.00;3.70;;;;;;;28.58;100.00;96646.44;5008947;28;106732;-67
2023/09/07 11:39:12;;;;;;;4.15;3.75;;;;;;;29.01;100.00;96648.91;5009569;28;102064;-67
2023/09/07 11:41:40;;;;;;;4.30;3.40;;;;;;;29.24;100.00;96645.06;5011109;28;102842;-67
2023/09/07 11:44:08;;;;;;;3.90;3.50;;;;;;;29.23;100.00;96646.25;5013696;28;101957;-67
2023/09/07 11:46:37;;;;;;;3.47;3.28;;;;;;;29.01;100.00;96640.72;5009439;28;105781;-67
2023/09/07 11:49:05;;;;;;;3.50;3.30;;;;;;;29.11;100.00;96640.94;5010232;28;102594;-67
2023/09/07 11:51:32;;;;;;;3.88;3.45;;;;;;;29.32;100.00;96643.25;5009182;28;102412;-67
2023/09/07 11:54:00;;;;;;;3.75;3.45;;;;;;;29.31;100.00;96641.69;5042215;27;105242;-67
2023/09/07 11:56:27;;;;;;;3.80;3.60;;;;;;;29.23;100.00;96635.28;5008897;28;104492;-67
2023/09/07 11:58:55;;;;;;;3.58;3.20;;;;;;;29.28;100.00;96636.91;5009499;28;102152;-67
2023/09/07 12:01:22;;;;;;;3.88;3.50;;;;;;;29.14;100.00;96639.38;5042797;27;105585;-67
2023/09/07 12:03:50;;;;;;;3.42;3.15;;;;;;;29.41;99.38;96639.13;5011961;28;105717;-67
2023/09/07 12:06:17;;;;;;;3.55;3.30;;;;;;;29.62;100.00;96642.25;5009137;28;104932;-68
2023/09/07 12:08:59;;;;;;;3.83;3.20;;;;;;;29.58;100.00;96640.63;5008588;28;105733;-67
2023/09/07 12:11:26;;;;;;;4.15;3.33;;;;;;;29.28;100.00;96631.44;4992499;28;102107;-67
2023/09/07 12:13:53;;;;;;;3.28;2.97;;;;;;;29.59;100.00;96642.97;5009043;28;105532;-67
2023/09/07 12:16:20;;;;;;;5.55;3.83;;;;;;;29.66;93.96;96632.16;5009944;28;103062;-67
2023/09/07 12:18:47;;;;;;;3.33;3.08;;;;;;;29.48;100.00;96627.50;5010544;28;102309;-67
2023/09/07 12:21:16;;;;;;;3.42;3.20;;;;;;;29.61;100.00;96624.25;5009050;28;105686;-67
2023/09/07 12:23:44;;;;;;;3.58;3.28;;;;;;;29.82;100.00;96630.06;5008287;28;105560;-67
2023/09/07 12:26:11;;;;;;;4.60;3.33;;;;;;;29.97;98.81;96623.63;5013771;28;101837;-67
2023/09/07 12:28:38;;;;;;;3.30;3.00;;;;;;;30.22;94.94;96618.53;5008032;28;105249;-68
2023/09/07 12:31:05;;;;;;;3.83;3.38;;;;;;;30.46;88.56;96626.34;5041988;27;101884;-67
2023/09/07 12:33:32;;;;;;;3.08;2.78;;;;;;;30.42;92.67;96617.25;5042643;27;102943;-68
2023/09/07 12:36:00;;;;;;;3.67;3.28;;;;;;;30.43;88.66;96616.09;5008107;28;105799;-67
2023/09/07 12:38:29;;;;;;;3.10;2.90;;;;;;;30.58;78.11;96613.19;5008738;28;102115;-68
2023/09/07 12:40:56;;;;;;;3.35;3.10;;;;;;;30.40;81.78;96612.13;5010087;28;102560;-68
2023/09/07 12:43:24;;;;;;;3.28;2.97;;;;;;;30.62;84.25;96610.47;5007922;28;105559;-67
2023/09/07 12:45:51;;;;;;;3.13;2.92;;;;;;;30.70;75.73;96607.47;5008632;28;102020;-67
2023/09/07 12:48:18;;;;;;;3.10;2.90;;;;;;;30.88;73.72;96607.66;5011448;28;105599;-67